Time;durP1;ratioP1;P1;durP2;ratioP2;P2;SDS_P1;SDS_P2;PMS_P1;PMS_P2;Temp;Humidity;BMP_temperature;BMP_pressure;BME280_temperature;BME280_humidity;BME280_pressure;Samples;Min_cycle;Max_cycle;Signal;HPM_P1;HPM_P2
2022/04/01 00:02:22;;;;;;;33.33;17.00;;;9.60;57.50;;;;;;5094080;28;20174;-71
2022/04/01 00:04:48;;;;;;;32.63;18.13;;;9.90;55.60;;;;;;5093617;28;20706;-71
2022/04/01 00:07:14;;;;;;;32.70;17.33;;;9.70;55.80;;;;;;5094172;28;20460;-71
2022/04/01 00:09:40;;;;;;;39.33;17.60;;;9.70;55.80;;;;;;5093676;28;20559;-71
2022/04/01 00:12:06;;;;;;;39.30;19.23;;;9.60;56.10;;;;;;5093396;28;20297;-71
2022/04/01 00:14:32;;;;;;;33.53;18.20;;;9.60;57.20;;;;;;5094195;28;20269;-71
2022/04/01 00:16:57;;;;;;;33.43;17.83;;;9.80;56.10;;;;;;5093300;28;20763;-71
2022/04/01 00:19:24;;;;;;;35.80;18.80;;;9.30;57.30;;;;;;5093393;28;20200;-71
2022/04/01 00:21:49;;;;;;;41.50;18.58;;;9.00;60.60;;;;;;5092452;28;20418;-71
2022/04/01 00:24:15;;;;;;;35.33;19.60;;;9.00;61.90;;;;;;5093803;28;20331;-71
2022/04/01 00:26:41;;;;;;;35.22;19.13;;;8.80;61.10;;;;;;5092891;28;20201;-71
2022/04/01 00:29:15;;;;;;;35.93;18.33;;;9.10;62.30;;;;;;5093551;28;20190;-71
2022/04/01 00:31:58;;;;;;;36.28;18.95;;;9.30;60.20;;;;;;5093312;28;20438;-71
2022/04/01 00:34:28;;;;;;;34.40;18.60;;;9.30;58.60;;;;;;5093758;28;20180;-71
2022/04/01 00:36:55;;;;;;;34.78;18.98;;;9.50;57.90;;;;;;5093204;28;20655;-71
2022/04/01 00:39:23;;;;;;;39.03;19.55;;;9.50;57.70;;;;;;5093929;28;20230;-71
2022/04/01 00:41:50;;;;;;;37.33;19.67;;;9.60;58.10;;;;;;5092812;28;20262;-71
2022/04/01 00:44:18;;;;;;;41.05;19.05;;;9.90;56.70;;;;;;5093098;28;20221;-71
2022/04/01 00:46:47;;;;;;;38.25;20.75;;;9.70;57.20;;;;;;5093149;28;20194;-71
2022/04/01 00:49:12;;;;;;;45.25;19.27;;;9.70;57.60;;;;;;5093272;28;20206;-71
2022/04/01 00:51:42;;;;;;;41.80;20.63;;;9.60;56.70;;;;;;5093194;28;20224;-71
2022/04/01 00:54:08;;;;;;;36.25;19.20;;;9.60;57.10;;;;;;5092911;28;20206;-71
2022/04/01 00:56:35;;;;;;;35.10;18.42;;;9.80;54.80;;;;;;5092848;28;20212;-71
2022/04/01 00:59:02;;;;;;;31.20;18.15;;;9.00;59.90;;;;;;5090889;28;20186;-71
2022/04/01 01:01:30;;;;;;;35.00;19.17;;;8.90;62.20;;;;;;5091257;28;20187;-71
2022/04/01 01:04:09;;;;;;;37.15;19.00;;;9.30;61.50;;;;;;5093434;28;20716;-71
2022/04/01 01:06:39;;;;;;;31.95;18.10;;;9.60;58.80;;;;;;5092972;28;20210;-71
2022/04/01 01:09:05;;;;;;;34.15;17.80;;;9.90;56.10;;;;;;5091729;28;20820;-71
2022/04/01 01:11:32;;;;;;;27.70;16.13;;;10.20;54.00;;;;;;5092971;28;20223;-71
2022/04/01 01:13:59;;;;;;;32.17;17.27;;;9.90;54.60;;;;;;5092784;28;20841;-71
2022/04/01 01:16:25;;;;;;;32.63;17.25;;;9.80;55.90;;;;;;5092702;28;20667;-71
2022/04/01 01:19:10;;;;;;;33.75;17.35;;;10.00;52.00;;;;;;5092118;28;20178;-71
2022/04/01 01:21:36;;;;;;;29.48;16.20;;;10.00;53.30;;;;;;5091584;28;20261;-71
2022/04/01 01:24:04;;;;;;;27.77;16.60;;;10.10;53.50;;;;;;5092113;28;20649;-71
2022/04/01 01:26:32;;;;;;;29.20;15.30;;;10.20;52.50;;;;;;5091746;28;20205;-71
2022/04/01 01:28:58;;;;;;;29.10;15.50;;;10.30;51.00;;;;;;5092928;28;20178;-71
2022/04/01 01:31:25;;;;;;;29.38;15.82;;;10.10;53.20;;;;;;5091964;28;20180;-70
2022/04/01 01:33:53;;;;;;;25.08;14.60;;;9.50;55.00;;;;;;5092225;28;20175;-73
2022/04/01 01:36:18;;;;;;;26.55;15.75;;;8.90;57.50;;;;;;5092654;28;20200;-72
2022/04/01 01:38:44;;;;;;;26.57;16.10;;;8.50;63.70;;;;;;5093152;28;20515;-73
2022/04/01 01:41:10;;;;;;;29.97;16.60;;;8.50;61.50;;;;;;5091774;28;20543;-73
2022/04/01 01:43:36;;;;;;;25.03;14.50;;;8.80;61.80;;;;;;5092593;28;20249;-72
2022/04/01 01:46:01;;;;;;;29.73;16.57;;;8.50;59.80;;;;;;5089726;28;20452;-70
2022/04/01 01:48:27;;;;;;;33.80;17.30;;;8.70;64.00;;;;;;5090932;28;20174;-71
2022/04/01 01:56:22;;;;;;;27.88;16.00;;;9.50;56.90;;;;;;5092387;28;20213;-69
2022/04/01 01:58:48;;;;;;;27.55;15.80;;;9.70;55.60;;;;;;5079245;28;20175;-69
2022/04/01 02:01:15;;;;;;;31.00;16.30;;;9.90;54.10;;;;;;5087666;28;20204;-69
2022/04/01 02:03:41;;;;;;;26.77;15.45;;;10.00;53.90;;;;;;5090305;28;20167;-69
2022/04/01 02:06:07;;;;;;;27.10;15.90;;;9.90;53.80;;;;;;5092041;28;20194;-69
2022/04/01 02:08:33;;;;;;;32.17;17.13;;;10.20;51.80;;;;;;5090885;28;20244;-69
2022/04/01 02:10:59;;;;;;;26.17;15.00;;;10.50;50.70;;;;;;5082804;28;20174;-69
2022/04/01 02:13:27;;;;;;;26.73;15.98;;;10.60;49.20;;;;;;5092145;28;20235;-69
2022/04/01 02:15:54;;;;;;;32.60;16.83;;;10.60;49.70;;;;;;5091201;28;20230;-69
2022/04/01 02:18:20;;;;;;;29.90;15.45;;;10.50;49.80;;;;;;5091660;28;20249;-69
2022/04/01 02:20:47;;;;;;;28.20;16.55;;;10.40;49.90;;;;;;5090758;28;20195;-70
2022/04/01 02:23:13;;;;;;;30.50;15.55;;;10.40;49.70;;;;;;5087790;28;20187;-70
2022/04/01 02:25:40;;;;;;;35.23;15.70;;;9.80;53.20;;;;;;5091468;28;20199;-69
2022/04/01 02:28:05;;;;;;;29.42;16.65;;;9.30;55.60;;;;;;5091279;28;20658;-69
2022/04/01 02:30:32;;;;;;;28.27;16.60;;;8.90;58.80;;;;;;5091546;28;20632;-69
2022/04/01 02:32:58;;;;;;;31.45;17.15;;;8.80;61.80;;;;;;5073666;28;20253;-69
2022/04/01 02:35:23;;;;;;;35.43;18.60;;;9.00;60.10;;;;;;5091717;28;20210;-69
2022/04/01 02:37:49;;;;;;;33.10;18.43;;;9.40;59.30;;;;;;5091691;28;20240;-70
2022/04/01 02:40:15;;;;;;;32.97;17.97;;;9.70;57.10;;;;;;5090603;28;20192;-69
2022/04/01 02:42:41;;;;;;;44.70;19.77;;;9.90;56.30;;;;;;5091145;28;20178;-70
2022/04/01 02:45:07;;;;;;;37.47;18.88;;;10.00;55.00;;;;;;5092171;28;20201;-69
2022/04/01 02:47:33;;;;;;;38.53;20.45;;;10.20;54.10;;;;;;5095675;28;20175;-69
2022/04/01 02:50:00;;;;;;;35.83;20.10;;;10.30;53.30;;;;;;5094937;28;20234;-69
2022/04/01 02:52:26;;;;;;;37.38;21.02;;;10.10;52.40;;;;;;5095179;28;20183;-69
2022/04/01 02:54:52;;;;;;;54.15;28.23;;;9.60;56.50;;;;;;5095300;28;20648;-70
2022/04/01 02:57:20;;;;;;;54.10;28.17;;;9.20;56.30;;;;;;5077834;28;20194;-69
2022/04/01 02:59:46;;;;;;;57.67;28.08;;;8.50;63.70;;;;;;5095021;28;20201;-69
2022/04/01 03:02:12;;;;;;;67.00;33.10;;;8.70;63.80;;;;;;5095142;28;20179;-69
2022/04/01 03:04:38;;;;;;;65.83;34.30;;;8.50;65.10;;;;;;5094804;28;20213;-69
2022/04/01 03:07:04;;;;;;;63.83;33.43;;;8.30;66.60;;;;;;5095826;28;20183;-69
2022/04/01 03:09:30;;;;;;;68.30;33.63;;;7.10;75.90;;;;;;5095487;28;20178;-68
2022/04/01 03:11:56;;;;;;;65.50;35.73;;;6.90;82.40;;;;;;5094036;28;20205;-69
2022/04/01 03:14:22;;;;;;;66.80;34.33;;;6.70;84.30;;;;;;5094833;28;20669;-69
2022/04/01 03:16:48;;;;;;;68.75;33.38;;;7.10;83.30;;;;;;5095331;28;20893;-69
2022/04/01 03:19:16;;;;;;;77.20;35.10;;;7.10;80.10;;;;;;5095062;28;20283;-69
2022/04/01 03:21:42;;;;;;;80.82;37.45;;;7.30;80.40;;;;;;5075703;28;20541;-71
2022/04/01 03:24:11;;;;;;;80.68;40.65;;;6.90;84.80;;;;;;5087715;28;20205;-71
2022/04/01 03:26:38;;;;;;;77.50;38.22;;;7.20;87.20;;;;;;5094724;28;20191;-71
2022/04/01 03:29:06;;;;;;;94.20;42.88;;;7.20;84.70;;;;;;5094698;28;20237;-72
2022/04/01 03:31:32;;;;;;;89.38;43.90;;;7.30;84.40;;;;;;5093537;28;20167;-71
2022/04/01 03:33:58;;;;;;;79.20;39.17;;;7.70;77.60;;;;;;5094053;28;20526;-71
2022/04/01 03:36:24;;;;;;;86.73;38.83;;;7.30;79.20;;;;;;5094545;28;21041;-72
2022/04/01 03:38:50;;;;;;;83.60;38.20;;;7.40;80.70;;;;;;5094647;28;20257;-71
2022/04/01 03:41:16;;;;;;;83.07;38.78;;;7.50;78.20;;;;;;5094260;28;20425;-71
2022/04/01 03:43:42;;;;;;;84.40;38.83;;;7.10;81.80;;;;;;5093431;28;20167;-71
2022/04/01 03:46:13;;;;;;;87.93;41.23;;;6.90;85.10;;;;;;5094267;28;20201;-71
2022/04/01 03:48:48;;;;;;;82.32;38.13;;;7.10;87.00;;;;;;5094854;28;20179;-72
2022/04/01 03:51:21;;;;;;;80.63;39.90;;;6.60;89.60;;;;;;5094784;28;20174;-71
2022/04/01 03:54:00;;;;;;;89.00;39.78;;;6.60;91.20;;;;;;5093817;28;20193;-71
2022/04/01 03:56:31;;;;;;;86.30;38.25;;;6.90;86.80;;;;;;5093507;28;20205;-71
2022/04/01 03:59:03;;;;;;;83.28;38.75;;;6.70;89.00;;;;;;5094574;28;20515;-71
2022/04/01 04:01:29;;;;;;;88.63;40.47;;;6.60;91.50;;;;;;5094212;28;20509;-71
2022/04/01 04:04:00;;;;;;;76.57;37.10;;;6.90;90.90;;;;;;5094118;28;20194;-72
2022/04/01 04:06:26;;;;;;;78.32;36.20;;;7.40;88.30;;;;;;5092595;28;20452;-71
2022/04/01 04:08:57;;;;;;;75.07;36.03;;;7.10;85.30;;;;;;5075686;28;20185;-71
2022/04/01 04:11:28;;;;;;;67.43;34.22;;;6.80;89.40;;;;;;5093674;28;20662;-71
2022/04/01 04:13:56;;;;;;;78.22;35.00;;;6.80;86.90;;;;;;5094172;28;20340;-71
2022/04/01 04:16:47;;;;;;;68.22;33.00;;;7.00;87.20;;;;;;5092579;28;20291;-71
2022/04/01 04:19:13;;;;;;;65.82;31.58;;;6.70;84.30;;;;;;5071138;28;20298;-72
2022/04/01 04:22:12;;;;;;;67.27;32.47;;;6.90;89.30;;;;;;5093955;28;20741;-72
2022/04/01 04:25:04;;;;;;;60.10;31.17;;;6.80;86.00;;;;;;5139038;22;20244;-69
2022/04/01 04:27:34;;;;;;;57.00;27.77;;;6.90;86.60;;;;;;5125575;27;20202;-69
2022/04/01 04:30:08;;;;;;;60.95;30.65;;;6.90;82.90;;;;;;5130972;27;20264;-70
2022/04/01 04:32:34;;;;;;;57.20;29.83;;;7.30;79.30;;;;;;5134290;27;20174;-70
2022/04/01 04:35:05;;;;;;;57.60;28.17;;;7.40;77.50;;;;;;5134032;27;20227;-70
2022/04/01 04:37:34;;;;;;;46.22;24.30;;;7.10;80.80;;;;;;5120817;27;20202;-71
2022/04/01 04:40:01;;;;;;;39.00;21.30;;;6.60;82.90;;;;;;5122227;27;20238;-69
2022/04/01 04:42:28;;;;;;;37.15;20.67;;;6.20;86.80;;;;;;5108653;27;20182;-70
2022/04/01 04:44:55;;;;;;;42.13;21.13;;;6.20;87.40;;;;;;5101585;27;20221;-69
2022/04/01 04:47:32;;;;;;;39.33;20.65;;;6.10;88.50;;;;;;5111731;28;20241;-70
2022/04/01 04:49:58;;;;;;;46.60;23.27;;;6.30;90.10;;;;;;5123431;27;20192;-70
2022/04/01 04:52:34;;;;;;;49.47;24.90;;;6.70;85.60;;;;;;5133671;27;20181;-70
2022/04/01 04:55:06;;;;;;;42.88;22.48;;;7.20;81.90;;;;;;5132203;27;20442;-70
2022/04/01 04:57:33;;;;;;;51.95;22.58;;;7.70;72.00;;;;;;5130880;27;20180;-70
2022/04/01 05:00:00;;;;;;;37.35;17.85;;;7.80;73.10;;;;;;5120958;27;20204;-70
2022/04/01 05:02:42;;;;;;;33.67;17.83;;;7.90;65.40;;;;;;5133851;27;20177;-70
2022/04/01 05:05:19;;;;;;;27.98;16.10;;;6.80;74.40;;;;;;5133294;27;20247;-70
2022/04/01 05:08:03;;;;;;;20.40;11.50;;;6.60;78.10;;;;;;5117426;27;20178;-70
2022/04/01 05:11:02;;;;;;;18.60;9.77;;;6.20;77.10;;;;;;5114908;27;20169;-69
2022/04/01 05:13:30;;;;;;;19.42;11.02;;;5.50;84.30;;;;;;5116215;27;20174;-69
2022/04/01 05:16:06;;;;;;;21.52;11.60;;;5.90;85.60;;;;;;5131898;27;20188;-69
2022/04/01 05:18:56;;;;;;;20.15;12.10;;;5.60;86.60;;;;;;5122749;27;20297;-72
2022/04/01 05:21:24;;;;;;;19.08;11.82;;;5.80;83.40;;;;;;5101723;27;20999;-75
2022/04/01 05:24:00;;;;;;;18.50;12.18;;;5.80;83.50;;;;;;5124919;27;20205;-75
2022/04/01 05:26:40;;;;;;;23.63;13.35;;;5.80;84.60;;;;;;5133552;27;20607;-75
2022/04/01 05:29:13;;;;;;;19.88;12.18;;;6.50;78.20;;;;;;5123547;27;20193;-74
2022/04/01 05:31:54;;;;;;;21.73;12.30;;;5.80;80.50;;;;;;5122558;27;20263;-71
2022/04/01 05:34:32;;;;;;;20.45;11.82;;;6.00;80.70;;;;;;5115258;27;20286;-71
2022/04/01 05:36:58;;;;;;;22.25;12.52;;;5.90;77.90;;;;;;5119262;27;20186;-71
2022/04/01 05:39:28;;;;;;;21.52;12.95;;;5.90;79.70;;;;;;5111809;27;20292;-71
2022/04/01 05:41:54;;;;;;;21.42;13.40;;;5.80;79.90;;;;;;5108021;27;20174;-71
2022/04/01 05:44:21;;;;;;;23.92;12.93;;;5.80;80.40;;;;;;5112677;28;20232;-71
2022/04/01 05:46:51;;;;;;;23.70;13.80;;;6.10;79.80;;;;;;5111960;27;20174;-71
2022/04/01 05:49:18;;;;;;;24.88;14.13;;;6.10;76.20;;;;;;5099224;27;20185;-71
2022/04/01 05:51:46;;;;;;;25.80;14.48;;;6.00;79.60;;;;;;5120847;27;20242;-72
2022/04/01 05:54:15;;;;;;;19.38;12.73;;;6.20;76.30;;;;;;5123065;27;20197;-71
2022/04/01 05:56:48;;;;;;;24.52;14.73;;;7.00;69.30;;;;;;5124584;27;20603;-71
2022/04/01 05:59:20;;;;;;;25.10;13.82;;;6.70;70.20;;;;;;5112450;27;20186;-71
2022/04/01 06:01:57;;;;;;;23.63;13.68;;;7.20;69.40;;;;;;5112387;28;20271;-71
2022/04/01 06:04:32;;;;;;;24.13;13.52;;;6.90;67.30;;;;;;5128719;27;20193;-70
2022/04/01 06:07:05;;;;;;;28.23;15.40;;;7.00;65.60;;;;;;5132102;27;20657;-70
2022/04/01 06:09:51;;;;;;;25.70;13.50;;;7.10;64.90;;;;;;5118660;27;20661;-70
2022/04/01 06:12:27;;;;;;;25.77;14.60;;;6.90;67.50;;;;;;5128336;27;20701;-70
2022/04/01 06:15:13;;;;;;;23.58;14.90;;;7.10;67.40;;;;;;5129208;27;20305;-70
2022/04/01 06:18:06;;;;;;;26.83;15.27;;;7.40;64.70;;;;;;5112304;28;20237;-70
2022/04/01 06:20:34;;;;;;;28.35;15.75;;;7.80;62.60;;;;;;5129579;27;20189;-74
2022/04/01 06:23:10;;;;;;;26.63;15.77;;;7.10;65.40;;;;;;5120852;27;20265;-71
2022/04/01 06:25:43;;;;;;;27.08;15.85;;;6.50;71.50;;;;;;5128688;27;20208;-71
2022/04/01 06:28:16;;;;;;;24.02;13.57;;;6.50;77.10;;;;;;5117449;28;20884;-72
2022/04/01 06:30:43;;;;;;;26.17;14.23;;;6.10;73.00;;;;;;5113489;28;20173;-71
2022/04/01 06:33:27;;;;;;;28.05;14.70;;;6.10;75.20;;;;;;5112056;28;20260;-71
2022/04/01 06:36:00;;;;;;;21.92;14.38;;;6.80;73.60;;;;;;5112108;28;20178;-71
2022/04/01 06:38:58;;;;;;;26.40;15.00;;;6.70;68.80;;;;;;5124875;28;20205;-71
2022/04/01 06:41:30;;;;;;;24.08;13.80;;;6.70;67.00;;;;;;5118006;28;20189;-71
2022/04/01 06:43:55;;;;;;;24.35;14.27;;;5.80;76.00;;;;;;5132717;27;20596;-71
2022/04/01 06:46:21;;;;;;;26.17;14.43;;;5.50;80.40;;;;;;5132595;27;20208;-71
2022/04/01 06:48:47;;;;;;;24.20;15.10;;;6.10;75.60;;;;;;5115365;28;20256;-71
2022/04/01 06:51:14;;;;;;;21.37;14.07;;;5.80;74.70;;;;;;5132436;28;20578;-71
2022/04/01 06:53:41;;;;;;;24.70;15.65;;;5.20;80.10;;;;;;5128112;27;20180;-71
2022/04/01 06:56:09;;;;;;;29.33;16.38;;;5.60;80.00;;;;;;5123607;27;20212;-75
2022/04/01 06:58:35;;;;;;;26.13;15.60;;;5.90;77.40;;;;;;5111970;28;20170;-71
2022/04/01 07:01:02;;;;;;;25.17;15.87;;;6.20;71.40;;;;;;5123794;28;20209;-71
2022/04/01 07:03:28;;;;;;;24.75;14.35;;;5.50;78.90;;;;;;5132191;27;20434;-71
2022/04/01 07:05:55;;;;;;;26.40;15.70;;;5.50;76.70;;;;;;5132662;28;20208;-71
2022/04/01 07:08:21;;;;;;;26.92;15.50;;;5.30;79.50;;;;;;5128758;27;20182;-71
2022/04/01 07:10:48;;;;;;;27.52;16.27;;;5.30;83.50;;;;;;5111880;28;20223;-71
2022/04/01 07:13:14;;;;;;;25.30;15.57;;;5.80;76.00;;;;;;5111949;28;20167;-71
2022/04/01 07:15:40;;;;;;;28.20;15.75;;;5.70;77.80;;;;;;5112050;28;20201;-71
2022/04/01 07:18:06;;;;;;;26.93;16.40;;;5.40;80.60;;;;;;5111939;28;20173;-71
2022/04/01 07:20:32;;;;;;;27.85;17.50;;;5.50;82.10;;;;;;5111300;28;20201;-71
2022/04/01 07:22:57;;;;;;;24.87;15.13;;;6.00;74.60;;;;;;5111706;28;20296;-71
2022/04/01 07:25:24;;;;;;;22.97;14.50;;;6.40;67.70;;;;;;5111661;28;20745;-71
2022/04/01 07:27:51;;;;;;;23.40;15.68;;;5.90;72.50;;;;;;5111993;28;20163;-71
2022/04/01 07:30:17;;;;;;;28.27;16.70;;;6.10;72.60;;;;;;5111220;28;20265;-71
2022/04/01 07:32:43;;;;;;;24.60;15.63;;;6.70;73.00;;;;;;5114746;28;20602;-71
2022/04/01 07:35:11;;;;;;;26.05;16.50;;;6.70;66.60;;;;;;5115482;28;20523;-71
2022/04/01 07:37:37;;;;;;;33.78;17.20;;;6.10;69.60;;;;;;5115545;28;20175;-71
2022/04/01 07:40:04;;;;;;;29.50;17.10;;;5.90;76.10;;;;;;5115107;28;20194;-71
2022/04/01 07:42:30;;;;;;;30.00;17.67;;;6.50;67.30;;;;;;5113942;28;20928;-71
2022/04/01 07:44:56;;;;;;;27.30;16.90;;;6.50;71.70;;;;;;5115286;28;20285;-71
2022/04/01 07:47:22;;;;;;;26.77;17.95;;;5.80;72.90;;;;;;5114926;28;20217;-71
2022/04/01 07:49:51;;;;;;;25.93;17.27;;;5.80;79.00;;;;;;5115386;28;20202;-71
2022/04/01 07:52:20;;;;;;;28.77;17.15;;;5.70;75.90;;;;;;5114716;28;20909;-71
2022/04/01 07:54:47;;;;;;;29.42;18.30;;;5.60;73.50;;;;;;5115010;28;20205;-71
2022/04/01 07:57:13;;;;;;;26.58;17.10;;;5.90;73.30;;;;;;5115084;28;20177;-71
2022/04/01 07:59:39;;;;;;;28.05;18.35;;;5.90;72.90;;;;;;5114854;28;20294;-71
2022/04/01 08:02:06;;;;;;;27.65;18.83;;;5.80;74.80;;;;;;5114616;28;20177;-70
2022/04/01 08:04:31;;;;;;;32.53;19.73;;;6.00;74.30;;;;;;5114821;28;20193;-71
2022/04/01 08:06:58;;;;;;;30.60;19.07;;;5.60;79.40;;;;;;5114289;28;20178;-71
2022/04/01 08:09:24;;;;;;;34.15;20.30;;;6.10;73.70;;;;;;5114936;28;20178;-71
2022/04/01 08:11:54;;;;;;;28.63;17.98;;;6.80;69.40;;;;;;5114611;28;20254;-71
2022/04/01 08:14:20;;;;;;;26.38;17.90;;;6.20;67.90;;;;;;5114499;28;20666;-71
2022/04/01 08:16:47;;;;;;;36.92;22.08;;;5.70;74.50;;;;;;5114310;28;20669;-71
2022/04/01 08:19:13;;;;;;;36.30;20.90;;;6.50;73.40;;;;;;5114433;28;20166;-71
2022/04/01 08:21:40;;;;;;;32.10;20.08;;;7.20;67.00;;;;;;5107074;28;20170;-71
2022/04/01 08:24:10;;;;;;;33.40;19.80;;;7.20;64.90;;;;;;5113856;27;20216;-71
2022/04/01 08:26:35;;;;;;;31.38;19.85;;;7.70;59.70;;;;;;5112473;28;20175;-71
2022/04/01 08:29:02;;;;;;;32.60;20.10;;;7.80;59.90;;;;;;5106001;28;20179;-71
2022/04/01 08:31:30;;;;;;;34.78;20.42;;;7.80;57.60;;;;;;5093097;28;20163;-71
2022/04/01 08:33:56;;;;;;;33.72;19.48;;;7.80;61.30;;;;;;5092709;28;20213;-71
2022/04/01 08:36:22;;;;;;;28.83;18.83;;;8.00;58.70;;;;;;5105997;28;20185;-71
2022/04/01 08:38:48;;;;;;;31.43;18.90;;;7.80;60.00;;;;;;5113154;28;20439;-71
2022/04/01 08:41:19;;;;;;;29.17;17.67;;;7.90;57.10;;;;;;5113816;28;20284;-71
2022/04/01 08:43:46;;;;;;;28.92;17.20;;;7.20;60.10;;;;;;5112789;28;20721;-70
2022/04/01 08:46:13;;;;;;;24.88;16.63;;;6.70;65.30;;;;;;5118537;27;20819;-70
2022/04/01 08:48:39;;;;;;;26.33;16.88;;;5.70;72.50;;;;;;5116978;27;20209;-71
2022/04/01 08:51:05;;;;;;;26.37;16.57;;;5.40;79.10;;;;;;5112174;27;20202;-71
2022/04/01 08:53:42;;;;;;;28.00;17.50;;;5.60;77.80;;;;;;5127063;27;20177;-71
2022/04/01 08:56:08;;;;;;;25.23;16.35;;;6.10;76.20;;;;;;5121802;27;20410;-71
2022/04/01 08:58:34;;;;;;;25.52;15.88;;;6.30;70.40;;;;;;5113877;28;20201;-71
2022/04/01 09:01:02;;;;;;;27.83;17.67;;;6.60;69.00;;;;;;5114496;27;20205;-70
2022/04/01 09:03:29;;;;;;;26.92;16.88;;;5.80;73.60;;;;;;5122707;27;20654;-71
2022/04/01 09:05:58;;;;;;;27.23;18.08;;;5.80;76.00;;;;;;5119270;27;20584;-70
2022/04/01 09:08:32;;;;;;;29.38;18.38;;;5.50;79.50;;;;;;5133886;27;20247;-71
2022/04/01 09:10:58;;;;;;;28.17;18.38;;;5.60;77.40;;;;;;5134054;27;20179;-71
2022/04/01 09:13:27;;;;;;;32.00;20.30;;;5.50;75.40;;;;;;5125633;27;20174;-70
2022/04/01 09:15:53;;;;;;;32.60;19.55;;;5.50;77.20;;;;;;5120192;27;20256;-77
2022/04/01 09:18:39;;;;;;;34.10;21.00;;;5.70;78.30;;;;;;5110776;27;20254;-70
2022/04/01 09:21:07;;;;;;;25.25;16.38;;;6.00;77.40;;;;;;5110516;27;20455;-71
2022/04/01 09:23:33;;;;;;;26.08;17.38;;;6.20;73.10;;;;;;5113985;27;20224;-71
2022/04/01 09:25:58;;;;;;;29.90;18.07;;;5.70;75.90;;;;;;5114487;27;20214;-71
2022/04/01 09:28:32;;;;;;;33.63;19.73;;;6.10;73.40;;;;;;5113006;28;20177;-70
2022/04/01 09:31:12;;;;;;;27.63;17.25;;;6.90;69.10;;;;;;5106679;27;20170;-71
2022/04/01 09:33:45;;;;;;;29.10;18.40;;;6.50;64.50;;;;;;5093003;28;20178;-71
2022/04/01 09:36:21;;;;;;;32.03;19.50;;;6.60;69.80;;;;;;5103200;28;20191;-72
2022/04/01 09:38:59;;;;;;;34.70;21.67;;;6.90;67.20;;;;;;5113405;28;20195;-71
2022/04/01 09:41:31;;;;;;;29.58;17.75;;;7.00;66.20;;;;;;5118975;27;20561;-71
2022/04/01 09:44:25;;;;;;;30.27;18.95;;;7.20;62.50;;;;;;5113646;27;20647;-72
2022/04/01 09:46:54;;;;;;;27.15;17.60;;;6.90;64.70;;;;;;5118274;27;20201;-73
2022/04/01 09:49:42;;;;;;;28.20;17.92;;;6.70;65.50;;;;;;5113067;28;20181;-72
2022/04/01 09:52:10;;;;;;;33.97;19.33;;;6.50;65.20;;;;;;5112829;27;20519;-71
2022/04/01 09:54:48;;;;;;;31.10;18.30;;;6.20;72.20;;;;;;5112680;28;20190;-71
2022/04/01 09:57:19;;;;;;;29.80;17.92;;;6.50;72.40;;;;;;5112722;28;20165;-71
2022/04/01 09:59:47;;;;;;;25.77;15.60;;;6.90;65.30;;;;;;5126806;27;20628;-71
2022/04/01 10:02:12;;;;;;;23.58;14.70;;;6.70;63.30;;;;;;5131383;27;20523;-72
2022/04/01 10:04:38;;;;;;;22.47;14.60;;;5.90;70.60;;;;;;5132883;27;20211;-71
2022/04/01 10:07:04;;;;;;;28.37;16.30;;;5.60;72.50;;;;;;5123780;27;20674;-71
2022/04/01 10:09:30;;;;;;;27.92;16.35;;;5.40;78.90;;;;;;5112206;28;20185;-74
2022/04/01 10:12:00;;;;;;;25.58;15.25;;;5.60;75.80;;;;;;5123153;27;20181;-72
2022/04/01 10:14:27;;;;;;;25.25;15.73;;;5.50;75.70;;;;;;5119780;27;20216;-71
2022/04/01 10:16:55;;;;;;;27.23;16.48;;;5.50;78.30;;;;;;5130886;27;20176;-71
2022/04/01 10:19:32;;;;;;;21.40;14.70;;;5.90;72.70;;;;;;5123908;27;20190;-72
2022/04/01 10:21:58;;;;;;;23.90;14.95;;;5.90;70.20;;;;;;5112160;28;20622;-73
2022/04/01 10:24:26;;;;;;;20.48;14.70;;;5.90;72.90;;;;;;5112560;28;20241;-72
2022/04/01 10:27:27;;;;;;;20.65;13.80;;;6.10;69.50;;;;;;5136644;22;20224;-75
2022/04/01 10:29:57;;;;;;;18.63;13.50;;;6.20;69.60;;;;;;5107861;28;20631;-74
2022/04/01 10:32:24;;;;;;;23.10;14.63;;;5.90;70.40;;;;;;5112172;28;20181;-75
2022/04/01 10:34:53;;;;;;;20.83;14.00;;;5.90;70.20;;;;;;5121638;28;20710;-74
2022/04/01 10:37:21;;;;;;;20.92;14.30;;;6.20;70.20;;;;;;5092504;28;20205;-75
2022/04/01 10:40:06;;;;;;;20.98;13.45;;;6.40;65.90;;;;;;5092574;28;20194;-75
2022/04/01 10:42:37;;;;;;;20.83;14.38;;;5.80;71.10;;;;;;5092327;28;20180;-75
2022/04/01 10:45:25;;;;;;;21.40;14.07;;;5.60;79.00;;;;;;5074281;28;20305;-73
2022/04/01 10:53:58;;;;;;;20.17;13.43;;;5.20;75.50;;;;;;5112429;28;20273;-74
2022/04/01 10:56:24;;;;;;;23.65;15.68;;;5.20;77.70;;;;;;5107781;28;20690;-75
2022/04/01 10:59:05;;;;;;;26.30;16.83;;;5.60;78.90;;;;;;5111179;28;20180;-75
2022/04/01 11:01:32;;;;;;;28.65;16.45;;;6.50;67.40;;;;;;5112118;28;20681;-74
2022/04/01 11:04:21;;;;;;;26.20;16.20;;;6.50;67.40;;;;;;5111589;28;20260;-75
2022/04/01 11:06:58;;;;;;;24.83;15.88;;;6.00;71.20;;;;;;5100454;28;20675;-74
2022/04/01 11:09:42;;;;;;;22.17;13.95;;;6.60;71.60;;;;;;5115388;28;20201;-75
2022/04/01 11:12:20;;;;;;;19.80;13.30;;;6.80;65.50;;;;;;5115588;28;20219;-73
2022/04/01 11:14:55;;;;;;;22.13;14.10;;;6.20;69.40;;;;;;5115748;28;20654;-75
2022/04/01 11:17:22;;;;;;;21.17;14.15;;;6.20;73.30;;;;;;5115101;28;20173;-76
2022/04/01 11:20:07;;;;;;;21.75;13.48;;;6.20;68.50;;;;;;5111837;28;20226;-76
2022/04/01 11:22:43;;;;;;;24.65;14.38;;;6.10;73.40;;;;;;5113272;28;20174;-76
2022/04/01 11:25:22;;;;;;;17.90;12.52;;;6.50;71.20;;;;;;5089464;28;20174;-72
2022/04/01 11:27:58;;;;;;;24.10;15.40;;;5.90;70.80;;;;;;5115230;28;20174;-71
2022/04/01 11:30:29;;;;;;;15.55;10.93;;;5.50;77.00;;;;;;5119452;28;20299;-73
2022/04/01 11:33:05;;;;;;;19.77;12.80;;;5.00;76.70;;;;;;5117113;28;20626;-73
2022/04/01 11:35:34;;;;;;;19.20;12.57;;;5.40;80.50;;;;;;5104536;28;20223;-73
2022/04/01 11:38:01;;;;;;;20.55;12.10;;;5.50;74.30;;;;;;5118486;28;20184;-72
2022/04/01 11:40:30;;;;;;;17.05;11.48;;;5.60;74.00;;;;;;5115702;28;20215;-73
2022/04/01 11:42:58;;;;;;;16.60;11.40;;;5.50;75.10;;;;;;5115301;28;20186;-73
2022/04/01 11:45:26;;;;;;;16.75;11.25;;;5.30;78.20;;;;;;5096878;28;20193;-72
2022/04/01 11:47:52;;;;;;;18.23;10.48;;;5.30;80.70;;;;;;5108768;28;20178;-71
2022/04/01 11:50:21;;;;;;;14.95;10.20;;;5.30;74.60;;;;;;5094833;28;20251;-72
2022/04/01 11:52:49;;;;;;;18.23;11.48;;;5.20;78.70;;;;;;5099337;28;20181;-73
2022/04/01 11:55:16;;;;;;;18.65;11.02;;;5.40;78.90;;;;;;5114289;28;20265;-74
2022/04/01 11:57:42;;;;;;;16.42;10.98;;;5.90;74.60;;;;;;5114134;28;20596;-72
2022/04/01 12:00:11;;;;;;;18.88;11.63;;;6.00;73.60;;;;;;5114870;28;20189;-72
2022/04/01 12:02:38;;;;;;;20.58;12.43;;;6.10;73.90;;;;;;5114395;28;20166;-71
2022/04/01 12:05:04;;;;;;;19.90;12.35;;;5.90;73.10;;;;;;5114152;28;20177;-71
2022/04/01 12:10:28;;;;;;;17.35;11.90;;;6.50;69.30;;;;;;5114366;28;20173;-72
2022/04/01 12:13:05;;;;;;;14.60;9.73;;;7.30;63.30;;;;;;5114543;28;20236;-70
2022/04/01 12:15:35;;;;;;;19.75;13.05;;;7.80;56.00;;;;;;5113894;28;20666;-72
2022/04/01 12:18:07;;;;;;;12.77;8.73;;;7.40;56.10;;;;;;5113977;28;20550;-72
2022/04/01 12:20:38;;;;;;;12.75;8.90;;;8.00;53.90;;;;;;5113538;28;20603;-72
2022/04/01 12:23:05;;;;;;;12.60;9.00;;;8.10;51.30;;;;;;5114252;28;20214;-71
2022/04/01 12:25:33;;;;;;;15.63;10.52;;;7.00;54.60;;;;;;5113147;28;20214;-69
2022/04/01 12:28:01;;;;;;;12.10;9.10;;;7.20;58.20;;;;;;5095342;28;20209;-74
2022/04/01 12:30:42;;;;;;;16.67;10.98;;;6.50;61.20;;;;;;5093825;28;20186;-72
2022/04/01 12:33:11;;;;;;;13.55;8.85;;;6.70;62.30;;;;;;5098312;28;20181;-70
2022/04/01 12:35:59;;;;;;;11.00;7.50;;;6.90;60.00;;;;;;5113571;28;20674;-72
2022/04/01 12:38:26;;;;;;;11.18;7.90;;;6.90;58.80;;;;;;5114249;28;20158;-71
2022/04/01 12:41:00;;;;;;;8.32;6.22;;;6.60;62.10;;;;;;5096908;28;20673;-69
2022/04/01 12:43:49;;;;;;;9.50;5.80;;;5.90;66.30;;;;;;5108158;28;20170;-71
2022/04/01 12:46:23;;;;;;;10.07;7.25;;;5.80;71.20;;;;;;5114008;28;20186;-70
2022/04/01 12:48:55;;;;;;;11.35;6.78;;;6.40;67.70;;;;;;5095164;28;20174;-70
2022/04/01 12:51:29;;;;;;;7.85;5.80;;;6.60;62.70;;;;;;5113446;28;20186;-69
2022/04/01 12:54:04;;;;;;;8.18;5.80;;;6.40;66.40;;;;;;5113506;28;20215;-71
2022/04/01 12:56:33;;;;;;;10.05;6.10;;;6.50;65.90;;;;;;5113317;28;20208;-71
2022/04/01 12:59:03;;;;;;;9.25;6.60;;;6.70;63.60;;;;;;5113635;28;20222;-71
2022/04/01 13:01:31;;;;;;;9.15;6.60;;;6.70;63.30;;;;;;5112708;28;20193;-72
2022/04/01 13:03:57;;;;;;;8.43;6.25;;;6.80;64.40;;;;;;5113459;28;20177;-75
2022/04/01 13:06:25;;;;;;;11.13;6.57;;;6.90;66.70;;;;;;5113050;28;21053;-72
2022/04/01 13:09:00;;;;;;;11.13;6.68;;;7.60;58.60;;;;;;5113406;28;20201;-71